createdAt,value
2022-12-09T00:00:45.665Z,14.07
2022-12-09T00:03:23.485Z,13.27
2022-12-09T00:05:51.018Z,13.40
2022-12-09T00:08:18.895Z,13.00
2022-12-09T00:10:53.108Z,12.40
2022-12-09T00:13:20.271Z,14.20
2022-12-09T00:15:47.566Z,13.30
2022-12-09T00:18:20.999Z,15.43
2022-12-09T00:20:48.166Z,13.53
2022-12-09T00:23:15.270Z,13.90
2022-12-09T00:25:48.891Z,11.37
2022-12-09T00:28:15.869Z,15.00
2022-12-09T00:30:42.892Z,13.23
2022-12-09T00:33:16.011Z,12.63
2022-12-09T00:35:43.184Z,13.63
2022-12-09T00:38:10.464Z,11.57
2022-12-09T00:40:44.934Z,13.67
2022-12-09T00:43:13.449Z,11.17
2022-12-09T00:45:40.726Z,14.80
2022-12-09T00:48:13.911Z,10.07
2022-12-09T00:50:48.426Z,11.13
2022-12-09T00:53:22.979Z,10.07
2022-12-09T00:55:50.039Z,10.73
2022-12-09T00:58:17.645Z,11.73
2022-12-09T01:00:51.233Z,10.33
2022-12-09T01:03:18.833Z,14.67
2022-12-09T01:05:46.621Z,9.43
2022-12-09T01:08:21.135Z,8.97
2022-12-09T01:10:48.787Z,10.23
2022-12-09T01:13:17.448Z,9.67
2022-12-09T01:15:51.022Z,9.20
2022-12-09T01:18:18.174Z,12.30
2022-12-09T01:20:45.578Z,12.13
2022-12-09T01:23:19.042Z,10.70
2022-12-09T01:25:46.057Z,9.50
2022-12-09T01:28:13.093Z,9.13
2022-12-09T01:30:48.287Z,8.73
2022-12-09T01:33:15.755Z,8.93
2022-12-09T01:35:42.803Z,9.13
2022-12-09T01:38:15.990Z,7.20
2022-12-09T01:40:47.106Z,7.03
2022-12-09T01:43:26.211Z,8.73
2022-12-09T01:45:53.687Z,9.47
2022-12-09T01:48:42.954Z,6.23
2022-12-09T01:51:14.456Z,6.63
2022-12-09T01:53:52.287Z,5.63
2022-12-09T01:56:30.928Z,9.13
2022-12-09T01:59:13.986Z,6.07
2022-12-09T02:01:46.396Z,6.27
2022-12-09T02:04:13.688Z,4.97
2022-12-09T02:06:48.299Z,5.13
2022-12-09T02:09:15.486Z,5.77
2022-12-09T02:12:31.979Z,6.97
2022-12-09T02:15:06.689Z,4.33
2022-12-09T02:17:50.975Z,5.93
2022-12-09T02:20:45.615Z,6.50
2022-12-09T02:23:45.967Z,6.83
2022-12-09T02:26:45.768Z,6.77
2022-12-09T02:29:58.010Z,6.97
2022-12-09T02:33:08.715Z,4.80
2022-12-09T02:35:59.956Z,7.03
2022-12-09T02:38:33.441Z,7.30
2022-12-09T02:41:32.919Z,7.20
2022-12-09T02:44:15.895Z,5.87
2022-12-09T02:46:51.801Z,5.90
2022-12-09T02:49:30.241Z,6.57
2022-12-09T02:52:04.986Z,7.33
2022-12-09T02:54:37.196Z,8.17
2022-12-09T02:57:22.917Z,7.73
2022-12-09T02:59:50.054Z,8.00
2022-12-09T03:02:50.431Z,6.10
2022-12-09T03:05:47.975Z,7.70
2022-12-09T03:08:26.979Z,9.07
2022-12-09T03:10:57.922Z,7.50
2022-12-09T03:14:02.934Z,8.07
2022-12-09T03:16:39.709Z,13.83
2022-12-09T03:19:42.966Z,8.17
2022-12-09T03:22:15.952Z,8.40
2022-12-09T03:25:12.302Z,6.97
2022-12-09T03:27:55.982Z,8.70
2022-12-09T03:30:30.206Z,9.87
2022-12-09T03:32:58.819Z,8.67
2022-12-09T03:35:42.341Z,9.07
2022-12-09T03:38:16.408Z,8.70
2022-12-09T03:40:52.007Z,10.17
2022-12-09T03:43:27.591Z,10.30
2022-12-09T03:46:04.404Z,10.97
2022-12-09T03:48:39.067Z,13.30
2022-12-09T03:51:30.189Z,10.40
2022-12-09T03:54:15.169Z,11.17
2022-12-09T03:56:56.292Z,11.90
2022-12-09T03:59:28.701Z,12.27
2022-12-09T04:02:03.473Z,10.07
2022-12-09T04:04:30.706Z,10.70
2022-12-09T04:06:58.133Z,11.67
2022-12-09T04:09:32.460Z,12.50
2022-12-09T04:11:59.772Z,13.97
2022-12-09T04:14:27.153Z,13.30
2022-12-09T04:17:01.217Z,14.47
2022-12-09T04:19:28.376Z,15.47
2022-12-09T04:21:55.394Z,11.70
2022-12-09T04:24:29.035Z,13.50
2022-12-09T04:26:56.008Z,12.30
2022-12-09T04:29:23.102Z,11.37
2022-12-09T04:31:57.162Z,15.57
2022-12-09T04:34:24.558Z,13.60
2022-12-09T04:36:51.559Z,10.40
2022-12-09T04:39:25.975Z,9.70
2022-12-09T04:41:53.122Z,12.03
2022-12-09T04:44:20.707Z,9.73
2022-12-09T04:46:54.161Z,9.03
2022-12-09T04:49:41.021Z,11.07
2022-12-09T04:52:14.984Z,9.87
2022-12-09T04:54:42.315Z,9.10
2022-12-09T04:57:09.799Z,9.53
2022-12-09T04:59:42.920Z,9.33
2022-12-09T05:02:10.051Z,12.70
2022-12-09T05:04:37.749Z,13.13
2022-12-09T05:07:11.083Z,11.17
2022-12-09T05:09:38.447Z,12.60
2022-12-09T05:12:06.407Z,11.43
2022-12-09T05:14:40.040Z,9.17
2022-12-09T05:17:07.548Z,10.00
2022-12-09T05:19:34.574Z,9.33
2022-12-09T05:22:09.101Z,14.23
2022-12-09T05:24:36.521Z,8.60
2022-12-09T05:27:03.859Z,11.53
2022-12-09T05:29:38.068Z,12.47
2022-12-09T05:32:06.428Z,13.67
2022-12-09T05:34:33.946Z,11.63
2022-12-09T05:37:08.291Z,12.47
2022-12-09T05:39:35.643Z,13.17
2022-12-09T05:42:03.148Z,11.03
2022-12-09T05:44:37.412Z,11.63
2022-12-09T05:47:05.295Z,11.23
2022-12-09T05:49:46.137Z,14.23
2022-12-09T05:52:14.534Z,12.63
2022-12-09T05:54:42.421Z,16.40
2022-12-09T05:57:16.397Z,20.07
2022-12-09T05:59:43.728Z,13.63
2022-12-09T06:02:11.116Z,12.07
2022-12-09T06:04:45.456Z,13.97
2022-12-09T06:07:13.246Z,10.67
2022-12-09T06:09:41.140Z,14.63
2022-12-09T06:12:15.243Z,12.07
2022-12-09T06:14:42.654Z,14.27
2022-12-09T06:17:09.750Z,13.27
2022-12-09T06:19:44.627Z,12.63
2022-12-09T06:22:12.167Z,13.20
2022-12-09T06:24:39.415Z,12.43
2022-12-09T06:27:13.462Z,13.77
2022-12-09T06:29:40.732Z,14.67
2022-12-09T06:32:08.598Z,15.30
2022-12-09T06:34:42.354Z,15.67
2022-12-09T06:37:09.863Z,14.47
2022-12-09T06:39:37.042Z,14.17
2022-12-09T06:42:16.198Z,16.30
2022-12-09T06:44:44.397Z,15.50
2022-12-09T06:47:11.901Z,17.40
2022-12-09T06:49:46.323Z,17.13
2022-12-09T06:52:20.215Z,16.83
2022-12-09T06:54:54.375Z,16.57
2022-12-09T06:57:21.766Z,13.67
2022-12-09T06:59:49.447Z,20.40
2022-12-09T07:02:23.807Z,17.27
2022-12-09T07:04:55.805Z,17.77
2022-12-09T07:07:30.457Z,18.03
2022-12-09T07:09:58.115Z,19.10
2022-12-09T07:12:26.063Z,17.23
2022-12-09T07:15:00.109Z,16.43
2022-12-09T07:17:28.041Z,16.90
2022-12-09T07:19:56.118Z,19.03
2022-12-09T07:22:31.936Z,19.63
2022-12-09T07:24:59.112Z,17.70
2022-12-09T07:27:26.265Z,17.53
2022-12-09T07:30:00.472Z,16.30
2022-12-09T07:32:28.270Z,19.90
2022-12-09T07:34:55.603Z,17.93
2022-12-09T07:37:29.024Z,17.37
2022-12-09T07:39:56.479Z,18.23
2022-12-09T07:42:24.613Z,17.77
2022-12-09T07:44:58.405Z,17.10
2022-12-09T07:47:25.626Z,15.20
2022-12-09T07:50:07.068Z,12.73
2022-12-09T07:52:35.035Z,16.70
2022-12-09T07:55:02.473Z,15.93
2022-12-09T07:57:38.469Z,14.60
2022-12-09T08:00:06.921Z,13.07
2022-12-09T08:02:34.247Z,16.13
2022-12-09T08:05:09.314Z,13.50
2022-12-09T08:07:43.700Z,13.07
2022-12-09T08:10:18.201Z,12.47
2022-12-09T08:12:45.687Z,15.07
2022-12-09T08:15:13.468Z,14.90
2022-12-09T08:17:47.173Z,13.57
2022-12-09T08:20:15.598Z,13.07
2022-12-09T08:22:43.470Z,12.07
2022-12-09T08:25:17.205Z,12.17
2022-12-09T08:27:45.026Z,12.53
2022-12-09T08:30:12.934Z,17.30
2022-12-09T08:32:47.164Z,12.73
2022-12-09T08:35:15.463Z,12.73
2022-12-09T08:37:43.857Z,13.07
2022-12-09T08:40:19.205Z,11.43
2022-12-09T08:42:46.376Z,11.63
2022-12-09T08:45:13.841Z,10.57
2022-12-09T08:47:48.374Z,12.23
2022-12-09T08:50:22.140Z,13.50
2022-12-09T08:53:02.010Z,11.97
2022-12-09T08:55:29.333Z,13.40
2022-12-09T08:57:58.054Z,12.37
2022-12-09T09:00:32.389Z,13.90
2022-12-09T09:03:00.182Z,12.27
2022-12-09T09:05:28.042Z,13.27
2022-12-09T09:08:02.545Z,13.33
2022-12-09T09:10:30.316Z,10.90
2022-12-09T09:12:57.789Z,11.97
2022-12-09T09:15:32.120Z,14.40
2022-12-09T09:17:59.789Z,13.67
2022-12-09T09:20:27.340Z,13.13
2022-12-09T09:23:03.251Z,11.23
2022-12-09T09:25:31.334Z,13.87
2022-12-09T09:27:58.548Z,14.43
2022-12-09T09:30:32.316Z,15.17
2022-12-09T09:33:00.080Z,17.27
2022-12-09T09:35:27.283Z,14.37
2022-12-09T09:38:02.021Z,11.33
2022-12-09T09:40:30.416Z,12.73
2022-12-09T09:42:58.963Z,15.87
2022-12-09T09:45:33.317Z,13.63
2022-12-09T09:48:10.341Z,14.27
2022-12-09T09:50:59.149Z,14.40
2022-12-09T09:53:32.968Z,14.60
2022-12-09T09:56:33.008Z,13.73
2022-12-09T09:59:21.449Z,12.70
2022-12-09T10:02:19.605Z,14.07
2022-12-09T10:05:17.904Z,14.50
2022-12-09T10:08:03.164Z,11.90
2022-12-09T10:10:47.472Z,15.67
2022-12-09T10:14:12.119Z,13.40
2022-12-09T10:17:08.573Z,12.57
2022-12-09T10:19:48.633Z,15.67
2022-12-09T10:22:24.783Z,14.73
2022-12-09T10:25:05.550Z,15.67
2022-12-09T10:28:08.028Z,16.50
2022-12-09T10:30:44.595Z,14.50
2022-12-09T10:33:21.131Z,16.23
2022-12-09T10:35:55.607Z,13.83
2022-12-09T10:38:24.942Z,14.87
2022-12-09T10:41:47.455Z,20.03
2022-12-09T10:44:21.941Z,16.07
2022-12-09T10:47:12.491Z,17.67
2022-12-09T10:49:49.343Z,14.77
2022-12-09T10:52:30.414Z,16.17
2022-12-09T10:54:58.835Z,14.47
2022-12-09T10:57:29.924Z,16.03
2022-12-09T11:00:31.048Z,14.03
2022-12-09T11:03:03.620Z,13.77
2022-12-09T11:05:41.321Z,13.73
2022-12-09T11:08:08.963Z,14.07
2022-12-09T11:10:38.303Z,15.13
2022-12-09T11:13:24.537Z,14.60
2022-12-09T11:15:54.560Z,15.33
2022-12-09T11:18:39.527Z,14.83
2022-12-09T11:21:27.450Z,14.97
2022-12-09T11:24:03.582Z,14.93
2022-12-09T11:26:39.307Z,13.97
2022-12-09T11:29:39.083Z,16.90
2022-12-09T11:32:14.496Z,15.50
2022-12-09T11:34:53.087Z,16.93
2022-12-09T11:37:21.032Z,15.40
2022-12-09T11:39:51.971Z,16.00
2022-12-09T11:42:30.017Z,15.67
2022-12-09T11:45:17.666Z,17.10
2022-12-09T11:50:52.217Z,18.80
2022-12-09T11:53:40.010Z,16.60
2022-12-09T11:56:29.672Z,17.07
2022-12-09T11:59:12.016Z,15.33
2022-12-09T12:02:01.789Z,16.87
2022-12-09T12:04:45.115Z,18.60
2022-12-09T12:07:38.536Z,16.97
2022-12-09T12:10:33.012Z,19.87
2022-12-09T12:13:30.889Z,17.93
2022-12-09T12:16:45.018Z,22.83
2022-12-09T12:19:25.595Z,18.63
2022-12-09T12:22:44.034Z,16.50
2022-12-09T12:25:46.186Z,16.00
2022-12-09T12:28:39.003Z,17.67
2022-12-09T12:31:30.896Z,21.63
2022-12-09T12:34:37.405Z,20.53
2022-12-09T12:37:39.662Z,21.30
2022-12-09T12:40:58.059Z,26.33
2022-12-09T12:44:03.342Z,20.57
2022-12-09T12:46:58.054Z,18.27
2022-12-09T12:50:00.215Z,20.33
2022-12-09T12:53:22.003Z,19.37
2022-12-09T12:56:07.748Z,17.10
2022-12-09T12:59:04.072Z,19.83
2022-12-09T13:02:42.242Z,19.07
2022-12-09T13:05:36.039Z,17.00
2022-12-09T13:08:19.605Z,18.10
2022-12-09T13:11:00.002Z,19.63
2022-12-09T13:14:01.875Z,18.73
2022-12-09T13:16:48.104Z,20.60
2022-12-09T13:19:34.448Z,22.67
2022-12-09T13:22:09.999Z,24.13
2022-12-09T13:24:42.645Z,24.23
2022-12-09T13:27:40.030Z,21.33
2022-12-09T13:30:36.230Z,23.93
2022-12-09T13:33:27.794Z,22.50
2022-12-09T13:36:45.698Z,19.43
2022-12-09T13:39:46.023Z,18.67
2022-12-09T13:42:47.408Z,20.17
2022-12-09T13:45:32.053Z,21.83
2022-12-09T13:48:17.312Z,19.33
2022-12-09T13:51:07.002Z,23.63
2022-12-09T13:53:45.813Z,23.00
2022-12-09T13:56:31.301Z,20.50
2022-12-09T13:59:33.339Z,24.43
2022-12-09T14:02:27.089Z,24.63
2022-12-09T14:05:22.011Z,23.00
2022-12-09T14:08:10.121Z,22.47
2022-12-09T14:10:46.438Z,22.67
2022-12-09T14:13:31.070Z,23.20
2022-12-09T14:16:34.814Z,21.63
2022-12-09T14:19:32.037Z,24.30
2022-12-09T14:22:19.190Z,25.33
2022-12-09T14:24:59.005Z,22.80
2022-12-09T14:27:29.442Z,25.73
2022-12-09T14:30:07.275Z,29.83
2022-12-09T14:32:50.962Z,22.40
2022-12-09T14:35:53.030Z,27.60
2022-12-09T14:39:23.594Z,24.83
2022-12-09T14:42:34.050Z,23.27
2022-12-09T14:45:37.775Z,24.87
2022-12-09T14:48:19.038Z,23.37
2022-12-09T14:51:21.694Z,24.50
2022-12-09T14:54:12.066Z,27.43
2022-12-09T14:56:39.253Z,24.97
2022-12-09T14:59:10.070Z,26.37
2022-12-09T15:02:04.102Z,27.30
2022-12-09T15:04:42.793Z,27.43
2022-12-09T15:07:32.034Z,28.20
2022-12-09T15:10:03.000Z,28.37
2022-12-09T15:12:44.078Z,25.70
2022-12-09T15:15:20.084Z,27.77
2022-12-09T15:18:15.175Z,87.90
2022-12-09T15:20:47.863Z,162.13
2022-12-09T15:23:44.123Z,31.20
2022-12-09T15:26:27.885Z,45.13
2022-12-09T15:29:04.390Z,45.53
2022-12-09T15:31:34.322Z,40.47
2022-12-09T15:34:26.668Z,35.37
2022-12-09T15:37:05.663Z,30.87
2022-12-09T15:40:00.074Z,31.60
2022-12-09T15:42:34.048Z,43.17
2022-12-09T15:45:19.131Z,37.63
2022-12-09T15:48:07.136Z,32.77
2022-12-09T15:51:04.068Z,36.37
2022-12-09T15:53:42.838Z,31.30
2022-12-09T15:56:39.102Z,33.83
2022-12-09T15:59:25.286Z,33.20
2022-12-09T16:02:04.119Z,35.27
2022-12-09T16:04:42.023Z,35.23
2022-12-09T16:07:21.101Z,35.33
2022-12-09T16:10:16.176Z,39.07
2022-12-09T16:12:51.111Z,32.50
2022-12-09T16:15:47.725Z,40.57
2022-12-09T16:18:56.039Z,42.77
2022-12-09T16:21:36.514Z,41.53
2022-12-09T16:24:20.043Z,44.30
2022-12-09T16:26:50.739Z,39.37
2022-12-09T16:29:44.050Z,43.67
2022-12-09T16:32:26.697Z,41.40
2022-12-09T16:35:26.456Z,45.13
2022-12-09T16:37:56.499Z,42.10
2022-12-09T16:40:33.082Z,44.63
2022-12-09T16:43:18.976Z,40.27
2022-12-09T16:46:09.148Z,43.77
2022-12-09T16:48:36.311Z,41.00
2022-12-09T16:51:28.179Z,44.07
2022-12-09T16:53:56.133Z,59.27
2022-12-09T16:56:27.891Z,47.37
2022-12-09T16:59:03.078Z,45.23
2022-12-09T17:01:41.529Z,42.97
2022-12-09T17:04:35.093Z,51.70
2022-12-09T17:07:02.029Z,43.33
2022-12-09T17:09:29.008Z,49.87
2022-12-09T17:12:02.063Z,50.73
2022-12-09T17:14:29.045Z,54.40
2022-12-09T17:16:56.001Z,47.17
2022-12-09T17:19:30.049Z,75.57
2022-12-09T17:21:57.919Z,74.83
2022-12-09T17:24:25.119Z,85.80
2022-12-09T17:26:59.376Z,73.20
2022-12-09T17:29:26.446Z,55.70
2022-12-09T17:31:53.518Z,49.33
2022-12-09T17:34:27.080Z,55.00
2022-12-09T17:36:55.288Z,46.07
2022-12-09T17:39:24.826Z,75.43
2022-12-09T17:41:58.368Z,60.37
2022-12-09T17:44:25.377Z,65.10
2022-12-09T17:46:52.602Z,57.70
2022-12-09T17:49:27.042Z,74.07
2022-12-09T17:52:00.699Z,60.67
2022-12-09T17:54:34.103Z,61.87
2022-12-09T17:57:01.123Z,87.97
2022-12-09T17:59:28.072Z,72.57
2022-12-09T18:02:01.098Z,48.17
2022-12-09T18:04:28.359Z,59.60
2022-12-09T18:06:55.303Z,85.70
2022-12-09T18:09:30.329Z,70.70
2022-12-09T18:11:57.257Z,64.50
2022-12-09T18:14:25.499Z,75.30
2022-12-09T18:16:59.141Z,141.60
2022-12-09T18:19:26.268Z,70.43
2022-12-09T18:21:55.627Z,144.07
2022-12-09T18:24:30.039Z,129.63
2022-12-09T18:26:58.398Z,93.60
2022-12-09T18:29:26.475Z,100.90
2022-12-09T18:32:04.058Z,105.53
2022-12-09T18:34:33.027Z,98.33
2022-12-09T18:37:00.108Z,95.60
2022-12-09T18:39:34.059Z,80.90
2022-12-09T18:42:01.028Z,83.03
2022-12-09T18:44:28.068Z,64.67
2022-12-09T18:47:02.066Z,94.27
2022-12-09T18:49:37.275Z,304.37
2022-12-09T18:52:17.189Z,146.87
2022-12-09T18:54:45.854Z,156.17
2022-12-09T18:57:12.793Z,86.33
2022-12-09T18:59:46.089Z,98.80
2022-12-09T19:02:14.008Z,407.17
2022-12-09T19:04:41.017Z,250.03
2022-12-09T19:07:15.066Z,450.97
2022-12-09T19:09:42.489Z,558.93
2022-12-09T19:12:46.013Z,200.07
2022-12-09T19:15:04.055Z,378.37
2022-12-09T19:17:32.681Z,452.40
2022-12-09T19:20:00.213Z,561.10
2022-12-09T19:22:34.125Z,414.90
2022-12-09T19:25:01.103Z,302.57
2022-12-09T19:27:28.092Z,275.73
2022-12-09T19:30:02.100Z,183.07
2022-12-09T19:32:52.590Z,139.83
2022-12-09T19:35:23.083Z,110.93
2022-12-09T19:37:50.153Z,168.80
2022-12-09T19:40:18.349Z,152.23
2022-12-09T19:42:52.086Z,132.83
2022-12-09T19:45:19.134Z,229.33
2022-12-09T19:47:46.593Z,112.03
2022-12-09T19:50:20.085Z,168.70
2022-12-09T19:52:47.242Z,232.90
2022-12-09T19:55:14.439Z,119.20
2022-12-09T19:57:48.106Z,302.83
2022-12-09T20:00:15.802Z,149.20
2022-12-09T20:02:42.823Z,140.57
2022-12-09T20:05:16.108Z,232.97
2022-12-09T20:07:43.284Z,342.73
2022-12-09T20:10:10.766Z,96.50
2022-12-09T20:12:45.045Z,154.80
2022-12-09T20:15:12.205Z,142.30
2022-12-09T20:17:39.206Z,333.07
2022-12-09T20:20:14.077Z,178.53
2022-12-09T20:22:41.012Z,308.57
2022-12-09T20:25:08.538Z,164.43
2022-12-09T20:27:42.072Z,263.87
2022-12-09T20:30:10.067Z,437.50
2022-12-09T20:32:37.106Z,293.37
2022-12-09T20:35:11.193Z,561.00
2022-12-09T20:37:38.130Z,435.03
2022-12-09T20:40:06.295Z,242.30
2022-12-09T20:42:40.797Z,405.80
2022-12-09T20:45:08.736Z,507.17
2022-12-09T20:47:35.770Z,527.57
2022-12-09T20:50:09.403Z,593.17
2022-12-09T20:52:43.152Z,425.30
2022-12-09T20:55:17.168Z,588.07
2022-12-09T20:57:44.256Z,387.83
2022-12-09T21:00:12.701Z,279.70
2022-12-09T21:02:47.107Z,688.40
2022-12-09T21:05:14.129Z,95.40
2022-12-09T21:07:41.217Z,265.77
2022-12-09T21:10:15.124Z,202.03
2022-12-09T21:12:42.046Z,215.97
2022-12-09T21:15:10.616Z,274.70
2022-12-09T21:17:44.085Z,260.27
2022-12-09T21:20:11.382Z,382.67
2022-12-09T21:22:39.093Z,80.50
2022-12-09T21:25:13.087Z,226.67
2022-12-09T21:27:40.370Z,283.30
2022-12-09T21:30:09.935Z,153.80
2022-12-09T21:32:46.266Z,301.83
2022-12-09T21:35:13.551Z,312.17
2022-12-09T21:37:40.906Z,289.47
2022-12-09T21:40:15.115Z,127.47
2022-12-09T21:42:42.127Z,275.03
2022-12-09T21:45:09.794Z,251.77
2022-12-09T21:47:43.116Z,653.67
2022-12-09T21:50:30.048Z,237.80
2022-12-09T21:53:05.073Z,668.07
2022-12-09T21:55:34.253Z,198.00
2022-12-09T21:58:01.232Z,441.97
2022-12-09T22:00:35.077Z,178.43
2022-12-09T22:03:02.088Z,464.00
2022-12-09T22:05:29.052Z,356.80
2022-12-09T22:08:03.133Z,359.10
2022-12-09T22:10:30.222Z,368.80
2022-12-09T22:12:57.299Z,262.77
2022-12-09T22:15:31.288Z,387.93
2022-12-09T22:17:58.463Z,475.10
2022-12-09T22:23:19.107Z,749.33
2022-12-09T22:25:46.080Z,538.03
2022-12-09T22:28:13.073Z,393.70
2022-12-09T22:30:46.091Z,221.97
2022-12-09T22:33:13.086Z,447.83
2022-12-09T22:35:40.062Z,286.83
2022-12-09T22:38:14.860Z,378.33
2022-12-09T22:40:42.334Z,473.83
2022-12-09T22:43:09.450Z,306.67
2022-12-09T22:45:43.096Z,453.63
2022-12-09T22:48:10.103Z,427.07
2022-12-09T22:50:57.127Z,384.37
2022-12-09T22:53:24.085Z,767.47
2022-12-09T22:55:51.789Z,562.37
2022-12-09T22:58:25.143Z,506.57
2022-12-09T23:00:52.926Z,292.17
2022-12-09T23:03:20.353Z,455.33
2022-12-09T23:05:54.391Z,587.83
2022-12-09T23:08:22.599Z,308.17
2022-12-09T23:10:50.684Z,750.90
2022-12-09T23:13:25.106Z,401.73
2022-12-09T23:15:52.172Z,440.40
2022-12-09T23:18:19.214Z,830.40
2022-12-09T23:20:53.094Z,340.13
2022-12-09T23:23:20.037Z,597.20
2022-12-09T23:25:47.122Z,731.70
2022-12-09T23:28:21.122Z,285.63
2022-12-09T23:30:48.141Z,516.30
2022-12-09T23:33:15.222Z,212.93
2022-12-09T23:35:49.129Z,387.90
2022-12-09T23:38:16.169Z,431.40
2022-12-09T23:41:00.174Z,639.60
2022-12-09T23:43:30.601Z,486.07
2022-12-09T23:46:15.318Z,530.47
2022-12-09T23:48:47.895Z,100.93
2022-12-09T23:51:36.115Z,201.67
2022-12-09T23:54:14.806Z,466.70
2022-12-09T23:56:51.162Z,524.27
2022-12-09T23:59:21.929Z,398.60
